American Strong — WDJ3172 — position and weather

sailwx.info

Track history (hours):
 
Tides and Currents Weather Stations Pressure Air Temp Water Temp Dewpoint Dewpoint Depression Visibility Wind Speed Wind Dir Waves Ship Positions

American Strong

Owner: American Commercial Lines LLC, Jeffersonville, IN. More information available from US FCC via Universal Licensing System and Coast Guard Vessel Documentation Center.

Last reported at 2017-Sep-22 02:01 UTC. Time now 2017-Sep-22 17:19 UTC.
Position N 30°04' W 093°22'.

Length 26 m; draft 3.1 m.

Type: Towing. MMSI: 367765490.

Date/timePositionNaut miles runAvg speedWind from/ knotsBaromVisibWave heightAir tempDewpointWater temp
2017-Sep-22 02:01N 30°04' W 093°22'0 0.0
2017-Sep-22 01:30N 30°04' W 093°22'0 0.5
2017-Sep-22 01:00N 30°04' W 093°22'0 0.8
2017-Sep-22 00:31N 30°04' W 093°21'0 0.0
2017-Sep-22 00:00N 30°04' W 093°21'0 1.0
2017-Sep-21 23:31N 30°04' W 093°22'0 0.2
2017-Sep-21 23:01N 30°04' W 093°22'0 0.2
2017-Sep-21 22:31N 30°04' W 093°22'1 1.8
2017-Sep-21 22:01N 30°04' W 093°23'2 4.2
2017-Sep-21 21:31N 30°04' W 093°26'2 4.5
2017-Sep-21 21:00N 30°04' W 093°28'2 4.5
2017-Sep-21 20:30N 30°04' W 093°31'2 4.4
2017-Sep-21 20:00N 30°04' W 093°33'2 4.3
2017-Sep-21 19:27N 30°04' W 093°36'2 4.3
2017-Sep-21 18:59N 30°04' W 093°38'2 4.1
2017-Sep-21 18:29N 30°04' W 093°41'2 4.5
2017-Sep-21 18:00N 30°03' W 093°43'3 5.0
2017-Sep-21 17:21N 30°01' W 093°46'7 2.2
2017-Sep-21 13:59N 29°56' W 093°52'0 0.0
2017-Sep-21 13:27N 29°56' W 093°52'0 0.0
2017-Sep-21 12:59N 29°56' W 093°52'0 0.0
2017-Sep-21 12:14N 29°56' W 093°52'1 1.9
2017-Sep-21 11:53N 29°56' W 093°53'2 4.4
2017-Sep-21 11:30N 29°54' W 093°54'  
Track history (hours):
 
Tides and Currents Weather Stations Pressure Air Temp Water Temp Dewpoint Dewpoint Depression Visibility Wind Speed Wind Dir Waves Ship Positions

American Strong

Owner: American Commercial Lines LLC, Jeffersonville, IN. More information available from US FCC via Universal Licensing System and Coast Guard Vessel Documentation Center.

Last reported at 2017-Sep-22 02:01 UTC. Time now 2017-Sep-22 17:19 UTC.
Position N 30°04' W 093°22'.

Length 26 m; draft 3.1 m.

Type: Towing. MMSI: 367765490.

Date/timePositionNaut miles runAvg speedWind from/ knotsBaromVisibWave heightAir tempDewpointWater temp
2017-Sep-22 02:01N 30°04' W 093°22'0 0.0
2017-Sep-22 01:30N 30°04' W 093°22'0 0.5
2017-Sep-22 01:00N 30°04' W 093°22'0 0.8
2017-Sep-22 00:31N 30°04' W 093°21'0 0.0
2017-Sep-22 00:00N 30°04' W 093°21'0 1.0
2017-Sep-21 23:31N 30°04' W 093°22'0 0.2
2017-Sep-21 23:01N 30°04' W 093°22'0 0.2
2017-Sep-21 22:31N 30°04' W 093°22'1 1.8
2017-Sep-21 22:01N 30°04' W 093°23'2 4.2
2017-Sep-21 21:31N 30°04' W 093°26'2 4.5
2017-Sep-21 21:00N 30°04' W 093°28'2 4.5
2017-Sep-21 20:30N 30°04' W 093°31'2 4.4
2017-Sep-21 20:00N 30°04' W 093°33'2 4.3
2017-Sep-21 19:27N 30°04' W 093°36'2 4.3
2017-Sep-21 18:59N 30°04' W 093°38'2 4.1
2017-Sep-21 18:29N 30°04' W 093°41'2 4.5
2017-Sep-21 18:00N 30°03' W 093°43'3 5.0
2017-Sep-21 17:21N 30°01' W 093°46'7 2.2
2017-Sep-21 13:59N 29°56' W 093°52'0 0.0
2017-Sep-21 13:27N 29°56' W 093°52'0 0.0
2017-Sep-21 12:59N 29°56' W 093°52'0 0.0
2017-Sep-21 12:14N 29°56' W 093°52'1 1.9
2017-Sep-21 11:53N 29°56' W 093°53'2 4.4
2017-Sep-21 11:30N 29°54' W 093°54'  

Dump ship's entire track history